X  Fechar Dados meteorológicos de METAR da aviação     LYNI Nis Airport
Temperatura
37°F Temperatura
32°F Ponto de orvalho
81% Umidade



Vento
8 MPH
13 KM/H
4 M/S
7 NÓS



310°
NO
Condições atuais

Nuvens esparsas Nuvens esparsas
Pressão 1018.92 (hPa) - 30.09 (inHg)
Visibilidade 6.2 (milha) - 10 (km)
Aeroporto
Código do aeroporto LYNI

Localização: Nis Airport
Distância: 63 (mi)

Metar:
LYNI 012130Z 31007KT 9999 SCT060 03/M00 Q1019 NOSIG

Hora: 01-02-2023 22:30 CET